Time;durP1;ratioP1;P1;durP2;ratioP2;P2;SDS_P1;SDS_P2;PMS_P1;PMS_P2;Temp;Humidity;BMP_temperature;BMP_pressure;BME280_temperature;BME280_humidity;BME280_pressure;Samples;Min_cycle;Max_cycle;Signal;HPM_P1;HPM_P2
2022/07/20 00:01:16;;;;;;;4.57;2.47;;;23.70;83.10;;;;;;5097694;28;20170;-92
2022/07/20 00:03:42;;;;;;;4.07;2.47;;;23.70;83.60;;;;;;5096761;28;20181;-93
2022/07/20 00:06:08;;;;;;;2.40;2.20;;;23.60;83.60;;;;;;5096227;28;20512;-92
2022/07/20 00:11:21;;;;;;;2.70;2.50;;;23.60;83.80;;;;;;5098192;28;20200;-93
2022/07/20 00:13:47;;;;;;;6.40;2.80;;;23.50;83.80;;;;;;5098708;28;20429;-92
2022/07/20 00:16:13;;;;;;;3.37;2.27;;;23.40;83.80;;;;;;5096130;28;20401;-92
2022/07/20 00:18:39;;;;;;;3.30;2.30;;;23.40;84.00;;;;;;5094727;28;20492;-92
2022/07/20 00:21:04;;;;;;;5.60;2.17;;;23.40;84.10;;;;;;5095962;28;20184;-92
2022/07/20 00:23:30;;;;;;;3.10;2.00;;;23.30;84.10;;;;;;5096016;28;20188;-92
2022/07/20 00:25:56;;;;;;;5.13;3.20;;;23.30;84.30;;;;;;5103143;28;20169;-91
2022/07/20 00:28:21;;;;;;;3.93;2.33;;;23.30;84.50;;;;;;5096721;28;20205;-92
2022/07/20 00:30:47;;;;;;;3.00;2.60;;;23.30;84.70;;;;;;5097241;28;20176;-90
2022/07/20 00:33:13;;;;;;;7.30;2.53;;;23.20;84.70;;;;;;5095035;28;20201;-92
2022/07/20 00:35:39;;;;;;;3.90;2.53;;;23.20;84.80;;;;;;5095656;28;20541;-91
2022/07/20 00:38:04;;;;;;;5.47;2.80;;;23.20;84.80;;;;;;5094307;28;20354;-92
2022/07/20 00:40:30;;;;;;;3.90;2.77;;;23.20;84.60;;;;;;5095369;28;20176;-90
2022/07/20 00:42:56;;;;;;;2.10;1.90;;;23.20;84.30;;;;;;5095636;28;20196;-92
2022/07/20 00:45:21;;;;;;;3.20;2.50;;;23.20;84.20;;;;;;5095550;28;20164;-91
2022/07/20 00:47:48;;;;;;;2.47;2.20;;;23.10;84.30;;;;;;5093741;28;20232;-92
2022/07/20 00:50:14;;;;;;;5.10;2.33;;;23.10;84.60;;;;;;5094233;28;20197;-91
2022/07/20 00:52:41;;;;;;;4.60;2.77;;;23.10;84.80;;;;;;5094206;28;20999;-92
2022/07/20 00:55:07;;;;;;;5.00;2.77;;;23.00;84.80;;;;;;5096510;28;20929;-93
2022/07/20 00:57:33;;;;;;;2.93;2.70;;;23.00;85.00;;;;;;5094250;28;20460;-92
2022/07/20 00:59:59;;;;;;;4.90;2.90;;;22.90;84.80;;;;;;5094049;28;20459;-92
2022/07/20 01:02:25;;;;;;;4.87;2.43;;;22.90;84.80;;;;;;5093986;28;20211;-91
2022/07/20 01:04:51;;;;;;;3.30;3.00;;;22.80;85.10;;;;;;5094413;28;20424;-91
2022/07/20 01:07:21;;;;;;;6.10;2.93;;;22.70;85.30;;;;;;5095868;28;20953;-92
2022/07/20 01:09:46;;;;;;;4.00;2.40;;;22.70;85.10;;;;;;5095335;28;20507;-93
2022/07/20 01:12:12;;;;;;;5.80;3.13;;;22.60;84.60;;;;;;5094040;28;20844;-92
2022/07/20 01:14:38;;;;;;;3.00;2.70;;;22.60;85.10;;;;;;5095114;28;20397;-91
2022/07/20 01:17:04;;;;;;;2.87;2.67;;;22.50;85.50;;;;;;5094774;28;20192;-92
2022/07/20 01:19:29;;;;;;;3.67;2.53;;;22.40;85.80;;;;;;5096503;28;20291;-91
2022/07/20 01:21:55;;;;;;;8.93;2.93;;;22.40;86.10;;;;;;5097851;28;20260;-93
2022/07/20 01:24:21;;;;;;;2.70;2.47;;;22.30;86.50;;;;;;5096398;28;20175;-92
2022/07/20 01:26:46;;;;;;;3.97;3.07;;;22.30;86.80;;;;;;5094012;28;20207;-92
2022/07/20 01:29:13;;;;;;;3.17;2.87;;;22.20;87.00;;;;;;5094792;28;20172;-92
2022/07/20 01:31:40;;;;;;;3.80;2.93;;;22.20;86.90;;;;;;5094385;28;20593;-92
2022/07/20 01:34:06;;;;;;;3.80;2.87;;;22.20;87.10;;;;;;5095415;28;20779;-91
2022/07/20 01:36:32;;;;;;;3.47;2.70;;;22.10;87.00;;;;;;5093990;28;20444;-92
2022/07/20 01:38:58;;;;;;;6.63;3.27;;;22.10;87.30;;;;;;5095278;28;20841;-92
2022/07/20 01:41:24;;;;;;;6.43;3.00;;;22.10;87.40;;;;;;5093893;28;20429;-92
2022/07/20 01:43:50;;;;;;;4.17;3.77;;;22.10;87.50;;;;;;5095070;28;20178;-92
2022/07/20 01:46:16;;;;;;;5.07;2.57;;;22.00;87.50;;;;;;5095817;28;20405;-92
2022/07/20 01:48:42;;;;;;;4.07;2.70;;;22.00;87.60;;;;;;5093842;28;20181;-92
2022/07/20 01:51:08;;;;;;;3.10;2.73;;;22.00;87.70;;;;;;5093648;28;20405;-92
2022/07/20 01:53:35;;;;;;;2.93;2.47;;;22.00;87.80;;;;;;5094072;28;20425;-92
2022/07/20 01:56:01;;;;;;;3.20;2.70;;;22.00;87.80;;;;;;5093636;28;20438;-92
2022/07/20 01:58:27;;;;;;;4.50;2.60;;;22.00;87.70;;;;;;5095328;28;20517;-92
2022/07/20 02:00:53;;;;;;;5.93;3.03;;;21.90;87.40;;;;;;5096985;28;20728;-92
2022/07/20 02:03:19;;;;;;;7.83;3.20;;;22.00;87.50;;;;;;5098473;28;20200;-92
2022/07/20 02:05:45;;;;;;;3.73;3.10;;;22.00;87.90;;;;;;5097882;28;20416;-90
2022/07/20 02:08:10;;;;;;;2.83;2.53;;;21.90;88.10;;;;;;5097379;28;20235;-92
2022/07/20 02:10:36;;;;;;;5.00;2.40;;;21.90;88.00;;;;;;5098261;28;20503;-91
2022/07/20 02:13:02;;;;;;;5.10;2.87;;;21.80;88.00;;;;;;5098647;28;20615;-92
2022/07/20 02:18:13;;;;;;;4.43;3.03;;;21.80;88.40;;;;;;5098336;28;20227;-92
2022/07/20 02:20:40;;;;;;;4.90;2.87;;;21.80;88.40;;;;;;5098420;28;20813;-92
2022/07/20 02:23:07;;;;;;;3.03;2.40;;;21.70;88.50;;;;;;5100190;28;20446;-93
2022/07/20 02:25:36;;;;;;;7.27;2.90;;;21.70;88.60;;;;;;5097500;28;20939;-92
2022/07/20 02:28:02;;;;;;;4.97;2.97;;;21.70;88.80;;;;;;5098292;28;20441;-92
2022/07/20 02:30:28;;;;;;;5.20;2.70;;;21.60;89.00;;;;;;5097194;28;20409;-91
2022/07/20 02:32:54;;;;;;;8.07;2.70;;;21.70;89.20;;;;;;5096895;28;20452;-93
2022/07/20 02:35:20;;;;;;;3.53;2.43;;;21.60;89.40;;;;;;5102134;28;20195;-91
2022/07/20 02:37:45;;;;;;;3.20;2.73;;;21.60;89.60;;;;;;5099772;28;20192;-92
2022/07/20 02:40:11;;;;;;;5.23;3.23;;;21.60;89.90;;;;;;5098029;28;20181;-90
2022/07/20 02:42:37;;;;;;;4.50;2.93;;;21.60;90.00;;;;;;5098130;28;20548;-92
2022/07/20 02:45:03;;;;;;;3.43;2.90;;;21.60;90.10;;;;;;5099827;28;20546;-91
2022/07/20 02:47:29;;;;;;;2.93;2.63;;;21.50;90.10;;;;;;5100998;28;20204;-93
2022/07/20 02:49:54;;;;;;;5.97;3.33;;;21.60;90.20;;;;;;5101698;28;20409;-92
2022/07/20 02:52:20;;;;;;;3.60;3.30;;;21.50;90.20;;;;;;5098762;28;20203;-93
2022/07/20 02:54:46;;;;;;;5.03;2.73;;;21.50;90.00;;;;;;5096786;28;20168;-92
2022/07/20 02:57:11;;;;;;;5.47;3.30;;;21.50;89.90;;;;;;5097542;28;20241;-93
2022/07/20 02:59:37;;;;;;;6.20;3.87;;;21.50;89.80;;;;;;5096329;28;20212;-92
2022/07/20 03:02:03;;;;;;;5.30;3.90;;;21.50;89.80;;;;;;5096312;28;20207;-92
2022/07/20 03:04:28;;;;;;;6.60;4.30;;;21.50;89.90;;;;;;5096426;28;20226;-92
2022/07/20 03:06:54;;;;;;;5.87;3.67;;;21.50;90.00;;;;;;5098525;28;20221;-93
2022/07/20 03:09:20;;;;;;;6.43;3.00;;;21.50;90.10;;;;;;5096564;28;20191;-93
2022/07/20 03:11:46;;;;;;;5.23;3.20;;;21.40;90.00;;;;;;5095490;28;20252;-93
2022/07/20 03:14:12;;;;;;;8.90;3.60;;;21.40;89.80;;;;;;5098709;28;20417;-93
2022/07/20 03:16:38;;;;;;;4.47;2.90;;;21.40;89.80;;;;;;5100362;28;20192;-92
2022/07/20 03:19:03;;;;;;;4.20;3.33;;;21.40;90.00;;;;;;5097851;28;20216;-91
2022/07/20 03:21:29;;;;;;;6.90;3.53;;;21.40;90.00;;;;;;5096288;28;20200;-93
2022/07/20 03:23:55;;;;;;;5.63;2.37;;;21.40;90.00;;;;;;5096410;28;20183;-93
2022/07/20 03:26:21;;;;;;;3.93;2.70;;;21.40;90.10;;;;;;5096050;28;20203;-93
2022/07/20 03:28:47;;;;;;;16.70;3.40;;;21.40;90.10;;;;;;5097486;28;20429;-93
2022/07/20 03:31:13;;;;;;;3.63;2.90;;;21.40;90.10;;;;;;5102244;28;21018;-92
2022/07/20 03:33:38;;;;;;;3.10;2.80;;;21.40;90.20;;;;;;5097443;28;20471;-93
2022/07/20 03:36:04;;;;;;;4.80;3.10;;;21.40;90.30;;;;;;5096828;28;20259;-93
2022/07/20 03:38:31;;;;;;;13.27;5.87;;;21.40;90.30;;;;;;5097051;28;20207;-93
2022/07/20 03:40:56;;;;;;;20.10;11.80;;;21.40;90.40;;;;;;5095668;28;20413;-92
2022/07/20 03:43:25;;;;;;;29.97;15.50;;;21.50;90.50;;;;;;5097228;28;20182;-93
2022/07/20 03:45:52;;;;;;;8.70;4.40;;;21.50;90.60;;;;;;5095680;28;20267;-92
2022/07/20 03:48:19;;;;;;;10.43;4.40;;;21.50;90.60;;;;;;5095446;28;20988;-93
2022/07/20 03:50:46;;;;;;;3.53;3.20;;;21.50;90.50;;;;;;5095484;28;20413;-93
2022/07/20 03:53:12;;;;;;;8.90;4.17;;;21.50;90.30;;;;;;5096806;28;20925;-93
2022/07/20 03:55:38;;;;;;;5.03;3.03;;;21.60;90.30;;;;;;5096586;28;20424;-93
2022/07/20 03:58:04;;;;;;;13.77;3.50;;;21.60;90.40;;;;;;5096574;28;20790;-93
2022/07/20 04:00:30;;;;;;;9.73;3.27;;;21.60;90.40;;;;;;5096182;28;20188;-93
2022/07/20 04:02:56;;;;;;;7.50;3.50;;;21.70;90.30;;;;;;5109271;28;20216;-93
2022/07/20 04:05:22;;;;;;;3.50;3.20;;;21.70;90.30;;;;;;5098783;28;20550;-93
2022/07/20 04:07:48;;;;;;;4.70;3.33;;;21.70;90.20;;;;;;5108372;28;20912;-93
2022/07/20 04:10:14;;;;;;;6.77;3.40;;;21.70;90.50;;;;;;5115632;28;20180;-92
2022/07/20 04:12:39;;;;;;;6.30;3.20;;;21.70;90.10;;;;;;5117353;28;20223;-93
2022/07/20 04:15:06;;;;;;;7.33;3.47;;;21.70;90.10;;;;;;5117965;28;20256;-93
2022/07/20 04:17:32;;;;;;;5.87;3.07;;;21.70;90.00;;;;;;5110619;28;20204;-92
2022/07/20 04:19:58;;;;;;;6.10;3.23;;;21.80;90.00;;;;;;5115376;28;20474;-91
2022/07/20 04:22:23;;;;;;;4.03;3.03;;;21.80;90.10;;;;;;5114213;28;20232;-94
2022/07/20 04:24:49;;;;;;;8.40;3.80;;;21.80;90.10;;;;;;5112495;28;20187;-92
2022/07/20 04:27:15;;;;;;;7.97;3.43;;;21.90;90.10;;;;;;5096852;28;20204;-94
2022/07/20 04:29:41;;;;;;;3.97;3.67;;;21.90;90.10;;;;;;5115094;28;20184;-93
2022/07/20 04:32:07;;;;;;;6.27;3.93;;;21.90;90.40;;;;;;5116043;28;20191;-93
2022/07/20 04:34:32;;;;;;;6.73;3.50;;;21.90;90.00;;;;;;5110584;28;20188;-92
2022/07/20 04:36:58;;;;;;;5.10;3.60;;;22.00;90.10;;;;;;5096697;28;20433;-93
2022/07/20 04:39:24;;;;;;;10.20;3.80;;;22.10;90.10;;;;;;5115053;28;20208;-93
2022/07/20 04:41:50;;;;;;;5.47;3.77;;;22.10;90.00;;;;;;5115892;28;20219;-94
2022/07/20 04:44:15;;;;;;;7.00;4.07;;;22.20;89.60;;;;;;5114783;28;20428;-95
2022/07/20 04:46:41;;;;;;;9.77;4.53;;;22.20;89.40;;;;;;5102227;28;20314;-94
2022/07/20 04:49:07;;;;;;;4.93;4.00;;;22.30;89.40;;;;;;5095070;28;20653;-92
2022/07/20 04:51:34;;;;;;;5.70;4.17;;;22.30;89.30;;;;;;5115603;28;20452;-93
2022/07/20 04:54:00;;;;;;;6.23;3.70;;;22.40;89.20;;;;;;5114353;28;20175;-94
2022/07/20 04:56:25;;;;;;;7.33;3.20;;;22.40;89.00;;;;;;5097629;28;20455;-94
2022/07/20 04:58:53;;;;;;;4.83;3.87;;;22.50;88.90;;;;;;5095090;28;20239;-94
2022/07/20 05:01:20;;;;;;;4.27;3.87;;;22.50;88.70;;;;;;5099366;28;20210;-93
2022/07/20 05:03:46;;;;;;;8.00;3.30;;;22.60;88.70;;;;;;5094380;28;20424;-93
2022/07/20 05:06:12;;;;;;;8.40;3.63;;;22.60;88.70;;;;;;5094237;28;20425;-94
2022/07/20 05:08:38;;;;;;;6.20;3.30;;;22.70;88.90;;;;;;5094386;28;20460;-94
2022/07/20 05:11:04;;;;;;;4.03;3.67;;;22.80;88.80;;;;;;5097128;28;20173;-93
2022/07/20 05:13:30;;;;;;;4.90;4.07;;;22.90;88.80;;;;;;5102007;28;20413;-92
2022/07/20 05:15:55;;;;;;;4.27;3.83;;;22.90;88.70;;;;;;5096041;28;20302;-92
2022/07/20 05:18:21;;;;;;;3.77;3.33;;;23.00;88.90;;;;;;5094094;28;20215;-93
2022/07/20 05:20:47;;;;;;;10.80;4.00;;;23.10;89.80;;;;;;5093767;28;20230;-91
2022/07/20 05:23:13;;;;;;;8.27;5.40;;;23.20;89.50;;;;;;5109958;28;20203;-94
2022/07/20 05:25:39;;;;;;;3.97;3.53;;;23.30;89.80;;;;;;5115071;28;20260;-94
2022/07/20 05:28:06;;;;;;;5.57;4.40;;;23.30;89.80;;;;;;5115087;28;20201;-94
2022/07/20 05:30:32;;;;;;;5.73;3.90;;;23.40;89.80;;;;;;5112895;28;20450;-92
2022/07/20 05:32:58;;;;;;;5.20;4.00;;;23.50;89.80;;;;;;5107023;28;20445;-94
2022/07/20 05:35:23;;;;;;;5.00;4.20;;;23.60;89.70;;;;;;5109361;28;20191;-92
2022/07/20 05:37:49;;;;;;;9.13;4.10;;;23.60;89.60;;;;;;5104503;28;20200;-94
2022/07/20 05:40:15;;;;;;;5.20;3.77;;;23.70;89.20;;;;;;5094886;28;20217;-92
2022/07/20 05:42:41;;;;;;;9.10;4.07;;;23.80;88.70;;;;;;5093645;28;20196;-94
2022/07/20 05:45:07;;;;;;;12.27;4.77;;;23.90;88.20;;;;;;5109799;28;20208;-92
2022/07/20 05:47:32;;;;;;;8.63;4.67;;;24.00;87.70;;;;;;5112724;28;20256;-93
2022/07/20 05:49:58;;;;;;;5.87;4.33;;;24.10;87.10;;;;;;5106817;28;21045;-92
2022/07/20 05:52:24;;;;;;;9.40;5.60;;;24.20;85.70;;;;;;5096187;28;20583;-94
2022/07/20 05:54:49;;;;;;;5.37;4.27;;;24.30;84.50;;;;;;5095848;28;20189;-93
2022/07/20 05:57:15;;;;;;;8.00;4.50;;;24.40;83.70;;;;;;5099356;28;20262;-94
2022/07/20 05:59:42;;;;;;;4.43;3.80;;;24.60;82.30;;;;;;5105021;28;20214;-93
2022/07/20 06:02:08;;;;;;;4.17;3.63;;;24.70;82.00;;;;;;5111807;28;20210;-93
2022/07/20 06:04:37;;;;;;;7.53;3.67;;;24.80;82.10;;;;;;5096351;28;20431;-93
2022/07/20 06:07:03;;;;;;;8.10;3.87;;;25.00;81.50;;;;;;5094166;28;20621;-93
2022/07/20 06:09:29;;;;;;;5.53;3.50;;;25.00;81.40;;;;;;5104759;28;20444;-94
2022/07/20 06:11:55;;;;;;;9.53;3.90;;;25.20;81.50;;;;;;5102210;28;20196;-93
2022/07/20 06:14:21;;;;;;;7.90;3.60;;;25.30;81.80;;;;;;5094304;28;20189;-93
2022/07/20 06:16:47;;;;;;;5.60;4.20;;;25.40;81.70;;;;;;5103231;28;20450;-94
2022/07/20 06:19:12;;;;;;;4.93;3.40;;;25.50;82.40;;;;;;5111146;28;20266;-94
2022/07/20 06:21:38;;;;;;;4.37;3.37;;;25.70;82.10;;;;;;5107326;28;20449;-93
2022/07/20 06:24:04;;;;;;;7.20;3.20;;;25.80;82.00;;;;;;5107183;28;20187;-94
2022/07/20 06:26:30;;;;;;;3.00;2.70;;;26.00;82.20;;;;;;5098413;28;20215;-94
2022/07/20 06:28:56;;;;;;;4.00;2.70;;;26.00;81.10;;;;;;5108836;28;20428;-93
2022/07/20 06:31:22;;;;;;;155.45;83.07;;;26.20;79.90;;;;;;5110024;28;20442;-95
2022/07/20 06:33:47;;;;;;;5.73;5.03;;;26.30;78.60;;;;;;5108136;28;20172;-93
2022/07/20 06:36:13;;;;;;;4.37;2.30;;;26.40;78.50;;;;;;5091242;28;20500;-94
2022/07/20 06:38:38;;;;;;;5.70;2.90;;;26.60;78.70;;;;;;5101936;28;20209;-93
2022/07/20 06:41:04;;;;;;;6.77;2.60;;;26.80;78.50;;;;;;5107267;28;20188;-94
2022/07/20 06:43:30;;;;;;;4.73;2.60;;;26.90;78.00;;;;;;5092780;28;20184;-94
2022/07/20 06:45:55;;;;;;;3.03;2.83;;;27.10;76.50;;;;;;5094849;28;20896;-92
2022/07/20 06:48:21;;;;;;;2.60;2.40;;;27.30;75.40;;;;;;5113257;28;20200;-94
2022/07/20 06:50:48;;;;;;;3.73;2.53;;;27.50;75.30;;;;;;5098980;28;20262;-92
2022/07/20 06:53:14;;;;;;;2.30;2.10;;;27.70;75.10;;;;;;5106134;28;20208;-94
2022/07/20 06:55:40;;;;;;;2.40;2.20;;;27.80;75.40;;;;;;5102537;28;20428;-92
2022/07/20 06:58:06;;;;;;;2.30;2.10;;;28.00;75.70;;;;;;5115416;28;20189;-95
2022/07/20 07:00:31;;;;;;;3.60;2.17;;;28.20;73.60;;;;;;5110525;28;20222;-93
2022/07/20 07:02:57;;;;;;;2.03;1.87;;;28.40;71.50;;;;;;5103629;28;20676;-95
2022/07/20 07:05:23;;;;;;;4.93;2.20;;;28.50;70.50;;;;;;5109906;28;20268;-93
2022/07/20 07:07:49;;;;;;;2.70;2.50;;;28.70;70.00;;;;;;5101283;28;20223;-93
2022/07/20 07:10:15;;;;;;;2.30;2.07;;;28.80;69.00;;;;;;5102821;28;20185;-93
2022/07/20 07:12:40;;;;;;;3.20;2.80;;;29.00;68.80;;;;;;5113990;28;20202;-94
2022/07/20 07:15:07;;;;;;;2.77;2.50;;;29.10;69.50;;;;;;5100659;28;20182;-92
2022/07/20 07:17:33;;;;;;;2.10;1.93;;;29.20;69.30;;;;;;5101031;28;20210;-93
2022/07/20 07:19:59;;;;;;;2.93;2.60;;;29.40;68.60;;;;;;5094705;28;20495;-94
2022/07/20 07:22:26;;;;;;;2.30;2.10;;;29.50;68.00;;;;;;5105292;28;20783;-94
2022/07/20 07:24:52;;;;;;;6.40;3.20;;;29.60;67.50;;;;;;5113523;28;20426;-93
2022/07/20 07:27:18;;;;;;;3.57;2.80;;;29.80;68.00;;;;;;5107745;28;20466;-94
2022/07/20 07:29:44;;;;;;;6.33;2.80;;;29.90;67.80;;;;;;5100329;28;20267;-93
2022/07/20 07:32:09;;;;;;;4.23;2.70;;;30.00;67.60;;;;;;5104866;28;20635;-94
2022/07/20 07:34:35;;;;;;;3.13;2.73;;;30.10;68.00;;;;;;5112185;28;20177;-93
2022/07/20 07:37:01;;;;;;;2.80;2.60;;;30.20;68.00;;;;;;5105546;28;20282;-94
2022/07/20 07:39:27;;;;;;;2.80;2.60;;;30.30;67.50;;;;;;5102179;28;20215;-94
2022/07/20 07:41:52;;;;;;;3.80;2.50;;;30.50;67.00;;;;;;5112509;28;20624;-95
2022/07/20 07:44:18;;;;;;;36.77;25.17;;;30.60;66.60;;;;;;5120610;28;20181;-95
2022/07/20 07:46:44;;;;;;;51.45;34.97;;;30.70;66.70;;;;;;5112548;28;20414;-94
2022/07/20 07:49:12;;;;;;;6.03;5.10;;;30.80;67.00;;;;;;5113995;28;20480;-93
2022/07/20 07:51:38;;;;;;;5.47;2.80;;;31.00;67.20;;;;;;5101730;28;20481;-93
2022/07/20 07:57:33;;;;;;;2.50;2.30;;;31.10;65.80;;;;;;5102085;27;20238;-93
2022/07/20 07:59:59;;;;;;;3.47;2.27;;;31.20;64.00;;;;;;5107658;28;20453;-94
2022/07/20 08:02:25;;;;;;;6.50;1.70;;;31.20;63.00;;;;;;5103459;28;20200;-94
2022/07/20 08:04:51;;;;;;;3.97;2.03;;;31.30;62.90;;;;;;5101201;28;20279;-93
2022/07/20 08:07:16;;;;;;;2.87;2.70;;;31.40;61.40;;;;;;5110172;28;20950;-93
2022/07/20 08:09:42;;;;;;;3.83;1.50;;;31.40;61.70;;;;;;5120262;27;20190;-94
2022/07/20 08:12:08;;;;;;;1.53;1.43;;;31.50;62.20;;;;;;5114471;28;20656;-94
2022/07/20 08:14:34;;;;;;;2.30;1.63;;;31.50;62.60;;;;;;5111847;28;20333;-93
2022/07/20 08:17:00;;;;;;;2.70;2.50;;;31.60;62.00;;;;;;5096930;28;20208;-94
2022/07/20 08:19:25;;;;;;;2.43;2.23;;;31.70;63.40;;;;;;5097790;28;20275;-93
2022/07/20 08:21:51;;;;;;;3.90;3.13;;;31.80;64.80;;;;;;5110537;28;20703;-95
2022/07/20 08:24:17;;;;;;;3.37;3.07;;;31.80;62.60;;;;;;5107957;28;20180;-95
2022/07/20 08:26:43;;;;;;;3.23;3.03;;;31.90;64.10;;;;;;5112419;28;20570;-94
2022/07/20 08:29:09;;;;;;;3.30;2.80;;;32.00;64.60;;;;;;5111821;28;20191;-95
2022/07/20 08:31:35;;;;;;;5.13;3.50;;;32.00;64.40;;;;;;5110320;28;20512;-94
2022/07/20 08:34:01;;;;;;;2.43;2.23;;;32.10;65.30;;;;;;5102420;28;20523;-94
2022/07/20 08:36:27;;;;;;;3.50;2.53;;;32.20;65.50;;;;;;5118606;27;20226;-94
2022/07/20 08:38:53;;;;;;;3.03;2.73;;;32.30;61.40;;;;;;5111659;28;20463;-94
2022/07/20 08:41:19;;;;;;;2.80;2.60;;;32.30;61.60;;;;;;5103780;28;20444;-94
2022/07/20 08:43:45;;;;;;;5.70;2.37;;;32.50;61.80;;;;;;5104957;28;20184;-94
2022/07/20 08:46:12;;;;;;;2.83;2.10;;;32.50;61.20;;;;;;5112303;28;20924;-94
2022/07/20 08:48:42;;;;;;;3.90;2.70;;;32.60;61.50;;;;;;5108721;28;20180;-94
2022/07/20 08:51:07;;;;;;;2.50;1.80;;;32.70;61.60;;;;;;5107578;28;20963;-94
2022/07/20 08:53:34;;;;;;;2.63;2.30;;;32.80;60.10;;;;;;5099970;28;20428;-94
2022/07/20 08:55:59;;;;;;;2.13;2.03;;;32.80;59.10;;;;;;5101963;28;20192;-94
2022/07/20 08:58:26;;;;;;;163.63;92.10;;;32.90;59.50;;;;;;5098796;28;20921;-94
2022/07/20 09:00:52;;;;;;;28.30;18.33;;;33.00;60.40;;;;;;5099642;28;20207;-93
2022/07/20 09:03:21;;;;;;;3.33;3.03;;;33.10;61.40;;;;;;5097708;28;20481;-94
2022/07/20 09:06:03;;;;;;;2.10;1.80;;;33.20;60.80;;;;;;5100466;28;20493;-94
2022/07/20 09:08:28;;;;;;;2.70;2.10;;;33.30;60.70;;;;;;5105457;28;20484;-95
2022/07/20 09:10:58;;;;;;;2.07;1.97;;;33.30;60.80;;;;;;5102318;28;21021;-93
2022/07/20 09:13:31;;;;;;;3.00;2.70;;;33.30;60.20;;;;;;5102337;28;20677;-92
2022/07/20 09:15:58;;;;;;;2.37;2.17;;;33.40;59.20;;;;;;5102254;28;20443;-93
2022/07/20 09:18:28;;;;;;;2.03;1.87;;;33.40;59.50;;;;;;5101066;28;20517;-92
2022/07/20 09:21:07;;;;;;;2.17;1.93;;;33.50;58.30;;;;;;5098798;28;20435;-93
2022/07/20 09:23:43;;;;;;;4.07;3.00;;;33.60;58.70;;;;;;5107740;28;20460;-94
2022/07/20 09:26:12;;;;;;;2.23;2.03;;;33.60;58.90;;;;;;5110327;28;20991;-92
2022/07/20 09:28:47;;;;;;;2.50;2.30;;;33.70;57.80;;;;;;5101127;28;20503;-93
2022/07/20 09:31:22;;;;;;;4.40;2.40;;;33.70;58.30;;;;;;5106942;28;20543;-93
2022/07/20 09:33:52;;;;;;;7.97;2.33;;;33.80;58.70;;;;;;5101854;28;20459;-93
2022/07/20 09:36:19;;;;;;;2.93;2.30;;;33.90;59.20;;;;;;5097959;28;20453;-92
2022/07/20 09:38:45;;;;;;;2.50;1.87;;;33.90;58.10;;;;;;5105691;28;20867;-94
2022/07/20 09:41:21;;;;;;;2.13;1.93;;;34.00;57.00;;;;;;5097795;28;20441;-92
2022/07/20 09:43:47;;;;;;;2.33;2.13;;;34.10;57.10;;;;;;5095821;28;20643;-93
2022/07/20 09:46:15;;;;;;;2.30;2.10;;;34.10;57.40;;;;;;5105383;28;20520;-94
2022/07/20 09:48:49;;;;;;;2.60;2.30;;;34.20;58.20;;;;;;5097184;28;20187;-93
2022/07/20 09:51:36;;;;;;;2.23;2.03;;;34.30;57.00;;;;;;5104086;28;20436;-93
2022/07/20 09:54:09;;;;;;;2.03;1.93;;;34.30;57.50;;;;;;5098707;28;20453;-94
2022/07/20 09:56:38;;;;;;;1.90;1.80;;;34.30;58.40;;;;;;5102952;28;20984;-94
2022/07/20 09:59:06;;;;;;;9.67;8.63;;;34.30;58.70;;;;;;5101835;28;21051;-92
2022/07/20 10:01:46;;;;;;;3.22;2.95;;;34.30;59.50;;;;;;5097599;28;20954;-93
2022/07/20 10:04:13;;;;;;;2.60;1.90;;;34.40;60.60;;;;;;5096797;28;20215;-93
2022/07/20 10:06:42;;;;;;;2.87;2.67;;;34.20;60.60;;;;;;5095799;28;20973;-93
2022/07/20 10:09:09;;;;;;;2.67;2.47;;;34.30;58.30;;;;;;5103771;28;20489;-93
2022/07/20 10:11:35;;;;;;;3.17;2.50;;;34.30;59.50;;;;;;5098448;28;20452;-94
2022/07/20 10:14:03;;;;;;;3.27;2.67;;;34.30;59.20;;;;;;5098077;28;20424;-93
2022/07/20 10:16:38;;;;;;;4.03;2.50;;;34.40;58.50;;;;;;5108879;28;20496;-94
2022/07/20 10:19:06;;;;;;;3.90;2.77;;;34.50;57.90;;;;;;5102924;28;20472;-93
2022/07/20 10:21:41;;;;;;;2.60;2.40;;;34.50;58.20;;;;;;5111081;28;20496;-93
2022/07/20 10:24:25;;;;;;;4.50;2.67;;;34.60;57.80;;;;;;5105612;28;20424;-93
2022/07/20 10:27:13;;;;;;;4.20;2.90;;;34.70;58.20;;;;;;5106174;28;20487;-93
2022/07/20 10:29:57;;;;;;;14.87;11.03;;;34.80;58.40;;;;;;5098981;28;20470;-93
2022/07/20 10:32:23;;;;;;;2.83;2.63;;;34.80;58.20;;;;;;5104302;28;20503;-93
2022/07/20 10:34:50;;;;;;;3.10;2.80;;;34.90;58.60;;;;;;5107289;28;21032;-92
2022/07/20 10:37:36;;;;;;;2.70;2.50;;;34.90;57.30;;;;;;5109926;28;20453;-94
2022/07/20 10:40:05;;;;;;;2.90;2.60;;;34.90;57.00;;;;;;5115960;28;20479;-94
2022/07/20 10:42:39;;;;;;;2.70;2.50;;;34.90;56.00;;;;;;5113464;28;20468;-94
2022/07/20 10:45:20;;;;;;;2.57;2.37;;;34.80;57.50;;;;;;5106295;28;20469;-94
2022/07/20 10:47:55;;;;;;;2.90;2.60;;;34.80;58.70;;;;;;5101807;28;20502;-94
2022/07/20 10:50:28;;;;;;;3.00;2.70;;;34.80;59.10;;;;;;5112854;28;20435;-93
2022/07/20 10:53:15;;;;;;;2.87;2.40;;;34.90;57.90;;;;;;5103047;28;20452;-93
2022/07/20 10:55:44;;;;;;;4.20;2.57;;;34.90;59.10;;;;;;5112561;28;20431;-94
2022/07/20 10:58:15;;;;;;;3.03;2.83;;;34.80;60.10;;;;;;5113586;28;20452;-93
2022/07/20 11:00:49;;;;;;;2.50;2.30;;;34.80;60.20;;;;;;5097331;28;20386;-93
2022/07/20 11:03:16;;;;;;;2.93;2.70;;;34.80;60.00;;;;;;5104480;28;20458;-90
2022/07/20 11:05:45;;;;;;;3.43;2.70;;;34.80;57.90;;;;;;5105328;28;20420;-90
2022/07/20 11:08:12;;;;;;;3.53;2.90;;;34.90;57.60;;;;;;5102492;28;20464;-93
2022/07/20 11:10:39;;;;;;;2.60;2.40;;;34.90;58.10;;;;;;5107170;28;20466;-91
2022/07/20 11:13:09;;;;;;;3.07;2.43;;;34.90;56.30;;;;;;5094289;28;20526;-93
2022/07/20 11:15:39;;;;;;;5.20;2.63;;;34.90;56.70;;;;;;5100208;28;20444;-92
2022/07/20 11:18:06;;;;;;;2.50;2.30;;;34.90;56.50;;;;;;5095161;28;20546;-90
2022/07/20 11:20:32;;;;;;;2.70;2.50;;;34.90;56.40;;;;;;5103696;28;20504;-88
2022/07/20 11:23:00;;;;;;;3.10;2.60;;;35.00;57.40;;;;;;5109154;28;20861;-90
2022/07/20 11:25:27;;;;;;;2.77;2.57;;;35.00;56.60;;;;;;5097883;28;20185;-93
2022/07/20 11:28:04;;;;;;;3.97;2.40;;;35.10;56.40;;;;;;5096436;28;20461;-92
2022/07/20 11:30:37;;;;;;;2.33;2.23;;;35.20;56.40;;;;;;5097109;28;20424;-90
2022/07/20 11:33:12;;;;;;;2.77;2.57;;;35.20;57.30;;;;;;5096599;28;20498;-91
2022/07/20 11:35:41;;;;;;;2.60;2.40;;;35.30;57.10;;;;;;5101437;28;20442;-90
2022/07/20 11:38:07;;;;;;;2.73;2.47;;;35.30;56.50;;;;;;5103349;28;20435;-90
2022/07/20 11:40:32;;;;;;;3.87;2.33;;;35.30;56.00;;;;;;5113124;28;20443;-91
2022/07/20 11:43:16;;;;;;;3.67;2.97;;;35.40;56.10;;;;;;5099679;28;20291;-94
2022/07/20 11:45:41;;;;;;;2.83;2.63;;;35.40;55.90;;;;;;5105658;28;20175;-90
2022/07/20 11:48:23;;;;;;;2.43;2.23;;;35.30;58.40;;;;;;5100849;28;20594;-92
2022/07/20 11:50:48;;;;;;;3.73;2.90;;;35.40;57.50;;;;;;5102408;28;20208;-93
2022/07/20 11:53:33;;;;;;;2.73;2.53;;;35.40;58.30;;;;;;5112927;28;20489;-94
2022/07/20 11:56:01;;;;;;;2.60;2.40;;;35.40;58.70;;;;;;5112635;28;20519;-93
2022/07/20 11:58:30;;;;;;;3.07;2.43;;;35.40;59.00;;;;;;5101665;28;20463;-92
2022/07/20 12:00:57;;;;;;;2.77;2.57;;;35.40;57.70;;;;;;5103754;28;20472;-90
2022/07/20 12:03:26;;;;;;;2.90;2.60;;;35.40;57.90;;;;;;5100945;28;20443;-93
2022/07/20 12:05:59;;;;;;;3.10;2.80;;;35.40;57.60;;;;;;5111669;28;20497;-91
2022/07/20 12:08:26;;;;;;;3.13;2.83;;;35.40;58.40;;;;;;5099674;28;20466;-94
2022/07/20 12:10:52;;;;;;;2.90;2.70;;;35.40;58.20;;;;;;5110670;28;20439;-96
2022/07/20 12:13:18;;;;;;;4.87;2.80;;;35.40;59.40;;;;;;5109034;28;20463;-93
2022/07/20 12:16:00;;;;;;;2.50;2.30;;;35.30;59.80;;;;;;5114610;28;20424;-96
2022/07/20 12:18:52;;;;;;;3.23;2.93;;;35.30;60.00;;;;;;5104939;28;20503;-96
2022/07/20 12:21:24;;;;;;;5.70;3.13;;;35.30;59.20;;;;;;5108931;28;20529;-96
2022/07/20 12:23:52;;;;;;;2.53;2.33;;;35.30;57.60;;;;;;5104023;28;20457;-93
2022/07/20 12:26:48;;;;;;;3.77;2.70;;;35.30;59.20;;;;;;5106992;28;20538;-96
2022/07/20 12:29:26;;;;;;;6.43;3.47;;;35.30;58.80;;;;;;5101473;28;20494;-91
2022/07/20 12:32:04;;;;;;;3.63;2.70;;;35.30;59.60;;;;;;5109449;28;20953;-92
2022/07/20 12:34:31;;;;;;;2.77;2.57;;;35.30;57.30;;;;;;5109359;28;20475;-89
2022/07/20 12:36:58;;;;;;;4.17;3.77;;;35.30;58.20;;;;;;5098194;28;20480;-93
2022/07/20 12:39:41;;;;;;;3.00;2.50;;;35.40;57.30;;;;;;5103315;28;20566;-92
2022/07/20 12:42:11;;;;;;;2.40;2.20;;;35.40;56.40;;;;;;5102117;28;20463;-92
2022/07/20 12:44:37;;;;;;;3.30;3.00;;;35.40;58.30;;;;;;5107122;28;20425;-94
2022/07/20 12:47:06;;;;;;;2.73;2.50;;;35.40;59.20;;;;;;5109364;28;20516;-91
2022/07/20 12:49:33;;;;;;;2.63;2.47;;;35.40;59.90;;;;;;5119278;28;20199;-93
2022/07/20 12:51:59;;;;;;;3.43;3.13;;;35.30;59.90;;;;;;5107175;28;20464;-92
2022/07/20 12:54:26;;;;;;;3.07;2.50;;;35.30;60.20;;;;;;5103058;28;20492;-91
2022/07/20 12:56:54;;;;;;;3.30;3.00;;;35.20;60.10;;;;;;5100259;28;20441;-92